Historyczne dane pomiarowe

Dodano dane terminowe – wersja testowa.

Dane z okresu 1951-2019

Wersja bazy: 1.34 [2019-03-16, lista zmian], aktualizacja planowana na 2019-04-15

Dane meteo z obszaru Polski uzyskane na podstawie danych udostępnionych przez Instytut Meteorologii i Gospodarki Wodnej – Państwowy Instytut Badawczy.

 

Wybierz Datę:    

       

TemperaturaWilgotnośćWiatrCiśnienieOpadyŚniegCzas trwania zjawisk
 Stacja t tx tn tng RH VA  wxwx mslp ppp RRR   cm mm wxwxwxwxwxwxwx
1994-08-14 14.8 19.0 11.4- 70.5- 7.3 1.3---- 0.3------------
1994-08-13 17.0 21.0 12.9- 78.5- 4.7 2.0---- 1.5------------
1994-08-12 16.8 21.5 12.7- 90.5- 6.7 0.0---- 5.3------------
1994-08-11 19.7 29.4 11.9- 77.5- 6.0 2.0---- 9.0------------
1994-08-10 19.6 29.4 15.1- 75.5- 3.7 1.0---- 0.0------------
1994-08-09 20.8 28.4 13.9- 80.0- 6.0 1.7---- 1.5------------
1994-08-08 20.6 29.4 15.6- 80.0- 4.7 1.7---- 12.5------------
1994-08-07 20.9 29.4 12.4- 75.5- 3.7 0.0---- 0.0------------
1994-08-06 20.5 29.9 8.9- 72.3- 2.3 0.7---- 0.0------------
1994-08-05 20.2 27.9 12.4- 69.5- 0.7 0.0---- 0.0------------
1994-08-04 19.5 27.1 14.1- 80.8- 4.7 1.3---- 0.3------------
1994-08-03 20.1 29.9 13.4- 77.3- 3.3 2.0---- 64.3------------
1994-08-02 22.0 31.7 9.4- 62.0- 0.7 0.7---- 0.0------------
1994-08-01 21.9 31.3 12.7- 68.8- 2.7 0.3---- 0.0------------
1994-07-31 22.1 31.4 12.4- 62.5- 1.0 1.0---- 0.0------------
1994-07-30 22.2 30.8 10.6- 64.0- 0.7 0.3---- 0.0------------
1994-07-29 21.3 31.4 8.9- 58.3- 0.7 1.0---- 0.0------------
1994-07-28 21.4 29.9 9.9- 55.0- 0.7 0.7---- 0.0------------
1994-07-27 20.8 30.5 10.4- 60.3- 1.0 0.0---- 0.0------------
1994-07-26 21.1 30.7 8.9- 61.3- 1.7 1.0---- 0.0------------
1994-07-25 20.7 29.4 9.2- 62.0- 1.7 0.7---- 0.0------------
1994-07-24 19.4 27.4 8.4- 64.5- 1.0 1.0---- 0.0------------
1994-07-23 18.0 26.4 7.0- 67.8- 1.0 1.0---- 0.0------------
1994-07-22 18.3 25.9 6.4- 62.3- 0.0 1.0---- 0.0------------
1994-07-21 17.2 24.5 4.9- 66.3- 0.0 1.3---- 0.0------------
1994-07-20 16.9 22.8 7.4- 66.0- 3.3 1.0---- 0.0------------
1994-07-19 18.6 24.0 12.3- 72.3- 4.3 1.7---- 0.0------------
1994-07-18 19.1 24.3 14.9- 83.3- 5.3 1.7---- 0.5------------
1994-07-17 19.1 27.4 12.1- 87.0- 4.7 1.3---- 4.2------------
1994-07-16 19.5 28.6 10.9- 76.0- 3.0 0.3---- 0.0------------
1994-07-15 19.5 25.9 11.4- 78.0- 4.3 1.0---- 0.0------------
1994-07-14 19.5 25.9 9.9- 72.5- 4.3 1.0---- 0.0------------
1994-07-13 17.0 25.0 9.4- 77.3- 3.3 1.0---- 0.1------------
1994-07-12 19.9 24.5 14.9- 72.5- 4.3 2.0---- 0.0------------
1994-07-11 15.1 18.5 8.6- 87.0- 8.0 1.7---- 0.0------------
1994-07-10 14.3 18.7 9.4- 87.0- 7.7 0.7---- 4.8------------
1994-07-09 12.5 21.0 6.7- 74.0- 7.7 1.3---- 0.6------------
1994-07-08 16.7 20.5 13.9- 81.0- 7.3 1.0---- 5.5------------
1994-07-07 17.0 25.4 6.9- 71.3- 5.0 1.3---- 1.6------------
1994-07-06 18.9 23.4 10.9- 57.3- 1.0 1.3---- 0.0------------
1994-07-05 18.4 26.3 6.9- 67.8- 5.0 1.0---- 0.0------------
1994-07-04 17.8 26.1 6.9- 67.0- 0.0 0.0---- 0.0------------
1994-07-03 17.2 25.0 5.4- 67.0- 0.0 1.7---- 0.0------------
1994-07-02 16.7 22.6 5.9- 72.3- 0.3 2.0---- 0.0------------
1994-07-01 19.1 21.9 16.5- 76.0- 2.7 2.0---- 0.0------------
1994-06-30 22.0 28.6 14.9- 84.0- 5.3 1.0---- 0.7------------
1994-06-29 22.4 29.4 11.4- 73.3- 1.0 1.0---- 0.0------------
1994-06-28 22.4 28.3 14.2- 77.0- 1.3 1.7---- 0.0------------
1994-06-27 22.9 29.3 17.1- 53.8- 2.0 1.7---- 0.0------------
1994-06-26 17.2 26.4 4.7- 59.0- 0.3 2.0---- 0.0------------
1994-06-25 13.8 21.5 1.4- 65.8- 0.0 0.7---- 0.0------------
1994-06-24 12.8 19.0 3.1- 55.3- 0.0 3.7---- 0.0------------
1994-06-23 16.8 21.4 15.3- 63.3- 4.0 4.7---- 0.0------------
1994-06-22 16.1 24.6 4.4- 70.8- 3.7 1.7---- 0.0------------
1994-06-21 13.9 18.9 4.4- 71.8- 1.3 1.7---- 0.0------------
1994-06-20 17.3 22.4 9.9- 74.5- 2.3 2.0---- 0.0------------
1994-06-19 15.7 22.0 10.5- 81.8- 5.3 2.3---- 0.0------------
1994-06-18 10.4 17.8 0.5- 65.5- 4.3 3.3---- 4.8------------
1994-06-17 10.3 14.4 6.3- 79.5- 7.3 2.3---- 1.6------------
1994-06-16 13.7 19.5 4.4- 72.0- 5.3 2.0---- 2.5------------
1111.2 ms

 

Źródłem pochodzenia danych jest Instytut Meteorologii i Gospodarki Wodnej – Państwowy Instytut Badawczy. Dane Instytutu Meteorologii i Gospodarki Wodnej – Państwowego Instytutu Badawczego zostały przetworzone.

Dane źródłowe można odnaleźć na stronie https://dane.imgw.pl